sensor_id;sensor_type;location;lat;lon;timestamp;noise_LAeq;noise_LA_min;noise_LA_max;noise_LA01;noise_LA95
77133;Laerm;26708;50.304;19.028;2023-04-03T00:01:54;42.16;38.63;51.27;;
77133;Laerm;26708;50.304;19.028;2023-04-03T00:04:00;42.57;38.49;54.73;;
77133;Laerm;26708;50.304;19.028;2023-04-03T00:06:08;48.19;38.09;59.68;;
77133;Laerm;26708;50.304;19.028;2023-04-03T00:08:13;45.67;40.14;59.29;;
77133;Laerm;26708;50.304;19.028;2023-04-03T00:10:18;41.31;38.46;49.57;;
77133;Laerm;26708;50.304;19.028;2023-04-03T00:12:23;42.18;38.59;52.42;;
77133;Laerm;26708;50.304;19.028;2023-04-03T00:14:27;41.53;38.05;58.58;;
77133;Laerm;26708;50.304;19.028;2023-04-03T00:16:33;43.28;38.76;61.52;;
77133;Laerm;26708;50.304;19.028;2023-04-03T00:18:39;41.67;38.08;50.19;;
77133;Laerm;26708;50.304;19.028;2023-04-03T00:20:44;40.89;37.86;44.04;;
77133;Laerm;26708;50.304;19.028;2023-04-03T00:22:51;42.15;38.50;49.53;;
77133;Laerm;26708;50.304;19.028;2023-04-03T00:24:56;42.98;38.57;50.81;;
77133;Laerm;26708;50.304;19.028;2023-04-03T00:27:01;40.91;37.98;46.50;;
77133;Laerm;26708;50.304;19.028;2023-04-03T00:29:07;45.87;38.77;58.53;;
77133;Laerm;26708;50.304;19.028;2023-04-03T00:31:14;48.97;38.82;62.67;;
77133;Laerm;26708;50.304;19.028;2023-04-03T00:33:19;40.95;38.23;45.24;;
77133;Laerm;26708;50.304;19.028;2023-04-03T00:35:27;40.80;38.22;44.12;;
77133;Laerm;26708;50.304;19.028;2023-04-03T00:37:32;41.94;38.08;48.23;;
77133;Laerm;26708;50.304;19.028;2023-04-03T00:39:39;41.03;38.03;48.77;;
77133;Laerm;26708;50.304;19.028;2023-04-03T00:41:46;41.01;38.13;46.66;;
77133;Laerm;26708;50.304;19.028;2023-04-03T00:43:50;42.59;37.95;55.95;;
77133;Laerm;26708;50.304;19.028;2023-04-03T00:45:58;41.12;37.85;45.31;;
77133;Laerm;26708;50.304;19.028;2023-04-03T00:48:08;40.71;37.73;46.07;;
77133;Laerm;26708;50.304;19.028;2023-04-03T00:50:14;40.91;38.38;44.26;;
77133;Laerm;26708;50.304;19.028;2023-04-03T00:52:26;46.45;38.45;60.89;;
77133;Laerm;26708;50.304;19.028;2023-04-03T00:54:41;51.52;38.61;63.89;;
77133;Laerm;26708;50.304;19.028;2023-04-03T00:56:47;41.35;38.25;46.00;;
77133;Laerm;26708;50.304;19.028;2023-04-03T00:59:00;41.46;38.24;47.63;;
77133;Laerm;26708;50.304;19.028;2023-04-03T01:01:14;41.31;38.12;48.81;;
77133;Laerm;26708;50.304;19.028;2023-04-03T01:03:20;41.12;38.10;46.55;;
77133;Laerm;26708;50.304;19.028;2023-04-03T01:05:25;42.81;38.29;51.39;;
77133;Laerm;26708;50.304;19.028;2023-04-03T01:07:32;42.15;38.39;47.02;;
77133;Laerm;26708;50.304;19.028;2023-04-03T01:09:43;42.05;38.20;50.56;;
77133;Laerm;26708;50.304;19.028;2023-04-03T01:11:49;41.28;38.18;47.27;;
77133;Laerm;26708;50.304;19.028;2023-04-03T01:13:55;40.66;38.01;44.45;;
77133;Laerm;26708;50.304;19.028;2023-04-03T01:16:02;41.91;38.02;51.79;;
77133;Laerm;26708;50.304;19.028;2023-04-03T01:18:10;41.02;38.29;44.78;;
77133;Laerm;26708;50.304;19.028;2023-04-03T01:23:50;41.89;37.57;49.42;;
77133;Laerm;26708;50.304;19.028;2023-04-03T01:26:00;42.98;38.25;50.61;;
77133;Laerm;26708;50.304;19.028;2023-04-03T01:28:08;41.43;38.23;45.04;;
77133;Laerm;26708;50.304;19.028;2023-04-03T01:30:19;41.71;38.01;58.32;;
77133;Laerm;26708;50.304;19.028;2023-04-03T01:32:26;41.88;38.17;49.30;;
77133;Laerm;26708;50.304;19.028;2023-04-03T01:34:31;40.90;38.15;45.68;;
77133;Laerm;26708;50.304;19.028;2023-04-03T01:36:37;41.68;37.87;49.42;;
77133;Laerm;26708;50.304;19.028;2023-04-03T01:38:42;42.15;38.50;56.52;;
77133;Laerm;26708;50.304;19.028;2023-04-03T01:40:47;42.12;38.63;48.75;;
77133;Laerm;26708;50.304;19.028;2023-04-03T01:42:53;43.21;38.64;59.46;;
77133;Laerm;26708;50.304;19.028;2023-04-03T01:44:58;41.52;38.49;52.65;;
77133;Laerm;26708;50.304;19.028;2023-04-03T01:47:06;42.22;38.25;49.24;;
77133;Laerm;26708;50.304;19.028;2023-04-03T01:49:15;41.24;37.68;50.03;;
77133;Laerm;26708;50.304;19.028;2023-04-03T01:51:19;41.10;38.14;50.79;;
77133;Laerm;26708;50.304;19.028;2023-04-03T01:53:24;41.80;38.31;55.36;;
77133;Laerm;26708;50.304;19.028;2023-04-03T01:55:29;41.69;38.76;53.79;;
77133;Laerm;26708;50.304;19.028;2023-04-03T01:57:34;53.45;38.41;72.56;;
77133;Laerm;26708;50.304;19.028;2023-04-03T01:59:39;43.20;38.37;60.30;;
77133;Laerm;26708;50.304;19.028;2023-04-03T02:01:44;41.90;38.60;51.93;;
77133;Laerm;26708;50.304;19.028;2023-04-03T02:03:49;41.12;37.63;48.75;;
77133;Laerm;26708;50.304;19.028;2023-04-03T02:05:56;40.85;38.10;44.28;;
77133;Laerm;26708;50.304;19.028;2023-04-03T02:08:02;41.80;38.62;46.72;;
77133;Laerm;26708;50.304;19.028;2023-04-03T02:10:08;48.88;38.54;65.34;;
77133;Laerm;26708;50.304;19.028;2023-04-03T02:12:12;49.51;38.86;65.27;;
77133;Laerm;26708;50.304;19.028;2023-04-03T02:14:19;42.68;39.15;54.01;;
77133;Laerm;26708;50.304;19.028;2023-04-03T02:16:24;50.88;38.76;63.99;;
77133;Laerm;26708;50.304;19.028;2023-04-03T02:18:30;41.54;38.56;46.12;;
77133;Laerm;26708;50.304;19.028;2023-04-03T02:20:35;42.84;38.17;53.04;;
77133;Laerm;26708;50.304;19.028;2023-04-03T02:22:43;41.69;38.78;46.61;;
77133;Laerm;26708;50.304;19.028;2023-04-03T02:24:47;43.29;38.35;60.99;;
77133;Laerm;26708;50.304;19.028;2023-04-03T02:26:54;42.38;38.19;50.66;;
77133;Laerm;26708;50.304;19.028;2023-04-03T02:28:58;50.64;38.67;69.52;;
77133;Laerm;26708;50.304;19.028;2023-04-03T02:31:04;42.16;38.27;49.74;;
77133;Laerm;26708;50.304;19.028;2023-04-03T02:33:11;41.60;38.17;51.96;;
77133;Laerm;26708;50.304;19.028;2023-04-03T02:35:16;51.31;38.30;69.58;;
77133;Laerm;26708;50.304;19.028;2023-04-03T02:37:22;42.38;38.73;55.50;;
77133;Laerm;26708;50.304;19.028;2023-04-03T02:39:32;43.82;38.61;51.24;;
77133;Laerm;26708;50.304;19.028;2023-04-03T02:41:37;54.84;38.88;70.08;;
77133;Laerm;26708;50.304;19.028;2023-04-03T02:43:47;43.92;38.46;51.79;;
77133;Laerm;26708;50.304;19.028;2023-04-03T02:45:53;44.44;38.93;52.83;;
77133;Laerm;26708;50.304;19.028;2023-04-03T02:47:57;44.72;39.18;54.48;;
77133;Laerm;26708;50.304;19.028;2023-04-03T02:50:02;44.47;38.87;54.76;;
77133;Laerm;26708;50.304;19.028;2023-04-03T02:52:08;44.44;39.26;53.62;;
77133;Laerm;26708;50.304;19.028;2023-04-03T02:54:13;44.49;38.98;55.83;;
77133;Laerm;26708;50.304;19.028;2023-04-03T02:56:25;49.61;39.38;65.97;;
77133;Laerm;26708;50.304;19.028;2023-04-03T02:58:30;44.73;39.21;55.55;;
77133;Laerm;26708;50.304;19.028;2023-04-03T03:00:37;44.82;39.69;56.47;;
77133;Laerm;26708;50.304;19.028;2023-04-03T03:02:42;46.83;39.16;67.11;;
77133;Laerm;26708;50.304;19.028;2023-04-03T03:04:47;43.83;38.62;57.53;;
77133;Laerm;26708;50.304;19.028;2023-04-03T03:06:52;49.69;39.73;64.87;;
77133;Laerm;26708;50.304;19.028;2023-04-03T03:08:57;46.66;40.15;63.24;;
77133;Laerm;26708;50.304;19.028;2023-04-03T03:11:04;57.98;40.66;77.35;;
77133;Laerm;26708;50.304;19.028;2023-04-03T03:13:11;57.58;39.73;76.12;;
77133;Laerm;26708;50.304;19.028;2023-04-03T03:15:17;45.52;40.98;55.52;;
77133;Laerm;26708;50.304;19.028;2023-04-03T03:17:22;47.59;40.27;61.81;;
77133;Laerm;26708;50.304;19.028;2023-04-03T03:19:26;45.37;40.75;58.10;;
77133;Laerm;26708;50.304;19.028;2023-04-03T03:21:32;46.92;39.32;65.29;;
77133;Laerm;26708;50.304;19.028;2023-04-03T03:23:38;52.75;39.97;68.20;;
77133;Laerm;26708;50.304;19.028;2023-04-03T03:25:42;45.54;40.57;56.90;;
77133;Laerm;26708;50.304;19.028;2023-04-03T03:27:47;49.34;40.22;63.27;;
77133;Laerm;26708;50.304;19.028;2023-04-03T03:29:55;48.65;40.11;62.55;;
77133;Laerm;26708;50.304;19.028;2023-04-03T03:32:00;53.12;40.71;66.65;;
77133;Laerm;26708;50.304;19.028;2023-04-03T03:34:04;49.65;42.41;62.20;;
77133;Laerm;26708;50.304;19.028;2023-04-03T03:36:09;52.32;43.55;65.31;;
77133;Laerm;26708;50.304;19.028;2023-04-03T03:38:14;52.70;43.29;62.82;;
77133;Laerm;26708;50.304;19.028;2023-04-03T03:40:19;54.51;46.18;68.41;;
77133;Laerm;26708;50.304;19.028;2023-04-03T03:42:24;70.80;47.64;101.89;;
77133;Laerm;26708;50.304;19.028;2023-04-03T03:44:29;59.72;42.23;85.78;;
77133;Laerm;26708;50.304;19.028;2023-04-03T03:46:36;45.16;40.31;56.02;;
77133;Laerm;26708;50.304;19.028;2023-04-03T03:48:41;46.46;40.61;56.13;;
77133;Laerm;26708;50.304;19.028;2023-04-03T03:50:49;45.61;41.14;54.95;;
77133;Laerm;26708;50.304;19.028;2023-04-03T03:52:58;54.88;41.44;69.56;;
77133;Laerm;26708;50.304;19.028;2023-04-03T03:55:05;53.85;41.34;69.79;;
77133;Laerm;26708;50.304;19.028;2023-04-03T03:57:11;46.17;39.36;57.81;;
77133;Laerm;26708;50.304;19.028;2023-04-03T03:59:17;44.15;39.83;52.46;;
77133;Laerm;26708;50.304;19.028;2023-04-03T04:01:23;48.30;40.31;63.82;;
77133;Laerm;26708;50.304;19.028;2023-04-03T04:03:32;51.18;41.39;67.46;;
77133;Laerm;26708;50.304;19.028;2023-04-03T04:05:37;50.60;39.90;64.66;;
77133;Laerm;26708;50.304;19.028;2023-04-03T04:07:42;48.40;40.45;63.87;;
77133;Laerm;26708;50.304;19.028;2023-04-03T04:09:47;52.76;39.02;72.40;;
77133;Laerm;26708;50.304;19.028;2023-04-03T04:11:55;52.17;41.36;67.55;;
77133;Laerm;26708;50.304;19.028;2023-04-03T04:14:00;57.11;41.91;71.24;;
77133;Laerm;26708;50.304;19.028;2023-04-03T04:16:07;52.48;41.42;65.61;;
77133;Laerm;26708;50.304;19.028;2023-04-03T04:18:12;55.67;42.56;70.71;;
77133;Laerm;26708;50.304;19.028;2023-04-03T04:20:22;52.06;41.59;67.84;;
77133;Laerm;26708;50.304;19.028;2023-04-03T04:22:28;52.87;41.95;64.96;;
77133;Laerm;26708;50.304;19.028;2023-04-03T04:24:33;54.30;42.03;67.84;;
77133;Laerm;26708;50.304;19.028;2023-04-03T04:26:39;52.67;41.47;67.76;;
77133;Laerm;26708;50.304;19.028;2023-04-03T04:28:46;55.31;42.61;67.87;;
77133;Laerm;26708;50.304;19.028;2023-04-03T04:30:53;57.85;42.09;71.47;;
77133;Laerm;26708;50.304;19.028;2023-04-03T04:33:01;53.58;42.67;67.68;;
77133;Laerm;26708;50.304;19.028;2023-04-03T04:35:09;55.77;42.08;66.82;;
77133;Laerm;26708;50.304;19.028;2023-04-03T04:37:19;57.71;43.33;72.93;;
77133;Laerm;26708;50.304;19.028;2023-04-03T04:39:25;55.75;43.05;69.47;;
77133;Laerm;26708;50.304;19.028;2023-04-03T04:41:32;54.30;43.07;67.29;;
77133;Laerm;26708;50.304;19.028;2023-04-03T04:43:38;58.06;44.64;70.04;;
77133;Laerm;26708;50.304;19.028;2023-04-03T04:45:46;56.05;43.53;68.59;;
77133;Laerm;26708;50.304;19.028;2023-04-03T04:47:55;56.34;43.55;72.07;;
77133;Laerm;26708;50.304;19.028;2023-04-03T04:50:00;56.92;44.19;72.96;;
77133;Laerm;26708;50.304;19.028;2023-04-03T04:52:08;56.77;44.89;68.73;;
77133;Laerm;26708;50.304;19.028;2023-04-03T04:54:17;56.67;42.99;69.58;;
77133;Laerm;26708;50.304;19.028;2023-04-03T04:56:23;57.17;43.68;70.45;;
77133;Laerm;26708;50.304;19.028;2023-04-03T04:58:31;56.45;42.65;67.33;;
77133;Laerm;26708;50.304;19.028;2023-04-03T05:00:37;54.99;42.47;70.18;;
77133;Laerm;26708;50.304;19.028;2023-04-03T05:02:41;58.64;43.65;71.19;;
77133;Laerm;26708;50.304;19.028;2023-04-03T05:04:47;55.90;42.55;69.07;;
77133;Laerm;26708;50.304;19.028;2023-04-03T05:06:57;49.90;41.80;63.79;;
77133;Laerm;26708;50.304;19.028;2023-04-03T05:09:04;56.35;44.14;70.03;;
77133;Laerm;26708;50.304;19.028;2023-04-03T05:11:14;55.34;43.46;70.68;;
77133;Laerm;26708;50.304;19.028;2023-04-03T05:13:20;56.68;42.35;68.52;;
77133;Laerm;26708;50.304;19.028;2023-04-03T05:15:25;56.44;43.39;70.81;;
77133;Laerm;26708;50.304;19.028;2023-04-03T05:17:30;54.12;42.74;70.63;;
77133;Laerm;26708;50.304;19.028;2023-04-03T05:19:36;56.70;42.50;68.60;;
77133;Laerm;26708;50.304;19.028;2023-04-03T05:21:42;57.07;43.66;69.41;;
77133;Laerm;26708;50.304;19.028;2023-04-03T05:23:51;57.44;43.20;70.15;;
77133;Laerm;26708;50.304;19.028;2023-04-03T05:25:56;57.93;43.31;74.39;;
77133;Laerm;26708;50.304;19.028;2023-04-03T05:28:04;61.09;43.83;79.21;;
77133;Laerm;26708;50.304;19.028;2023-04-03T05:30:11;58.50;43.14;71.88;;
77133;Laerm;26708;50.304;19.028;2023-04-03T05:32:17;54.56;44.72;67.35;;
77133;Laerm;26708;50.304;19.028;2023-04-03T05:34:25;60.44;44.78;72.36;;
77133;Laerm;26708;50.304;19.028;2023-04-03T05:36:32;58.46;42.86;70.17;;
77133;Laerm;26708;50.304;19.028;2023-04-03T05:38:40;55.74;42.82;69.87;;
77133;Laerm;26708;50.304;19.028;2023-04-03T05:40:45;57.10;43.00;70.28;;
77133;Laerm;26708;50.304;19.028;2023-04-03T05:42:50;54.45;42.14;64.29;;
77133;Laerm;26708;50.304;19.028;2023-04-03T05:45:00;55.63;43.17;70.22;;
77133;Laerm;26708;50.304;19.028;2023-04-03T05:47:05;57.78;43.16;73.25;;
77133;Laerm;26708;50.304;19.028;2023-04-03T05:49:10;58.55;43.63;69.59;;
77133;Laerm;26708;50.304;19.028;2023-04-03T05:51:19;59.96;45.29;70.93;;
77133;Laerm;26708;50.304;19.028;2023-04-03T05:53:34;57.62;44.69;73.76;;
77133;Laerm;26708;50.304;19.028;2023-04-03T05:55:42;56.54;42.43;70.47;;
77133;Laerm;26708;50.304;19.028;2023-04-03T05:57:46;58.77;44.01;70.45;;
77133;Laerm;26708;50.304;19.028;2023-04-03T05:59:51;55.94;42.61;73.03;;
77133;Laerm;26708;50.304;19.028;2023-04-03T06:02:00;57.68;43.21;67.23;;
77133;Laerm;26708;50.304;19.028;2023-04-03T06:04:05;59.62;44.23;71.58;;
77133;Laerm;26708;50.304;19.028;2023-04-03T06:06:13;53.56;41.14;68.48;;
77133;Laerm;26708;50.304;19.028;2023-04-03T06:08:20;56.85;42.23;72.94;;
77133;Laerm;26708;50.304;19.028;2023-04-03T06:10:25;57.19;42.40;69.07;;
77133;Laerm;26708;50.304;19.028;2023-04-03T06:12:30;57.62;43.39;72.70;;
77133;Laerm;26708;50.304;19.028;2023-04-03T06:14:35;56.65;42.84;69.52;;
77133;Laerm;26708;50.304;19.028;2023-04-03T06:16:40;58.01;43.99;70.38;;
77133;Laerm;26708;50.304;19.028;2023-04-03T06:18:47;56.35;43.74;68.71;;
77133;Laerm;26708;50.304;19.028;2023-04-03T06:20:53;63.20;43.84;82.89;;
77133;Laerm;26708;50.304;19.028;2023-04-03T06:22:57;59.94;46.35;68.33;;
77133;Laerm;26708;50.304;19.028;2023-04-03T06:25:04;56.62;43.88;67.76;;
77133;Laerm;26708;50.304;19.028;2023-04-03T06:27:10;59.00;44.74;70.67;;
77133;Laerm;26708;50.304;19.028;2023-04-03T06:29:15;54.66;43.86;66.32;;
77133;Laerm;26708;50.304;19.028;2023-04-03T06:31:20;60.56;47.01;71.33;;
77133;Laerm;26708;50.304;19.028;2023-04-03T06:33:25;63.21;42.92;84.46;;
77133;Laerm;26708;50.304;19.028;2023-04-03T06:35:32;57.51;42.19;70.51;;
77133;Laerm;26708;50.304;19.028;2023-04-03T06:37:38;57.01;42.93;67.57;;
77133;Laerm;26708;50.304;19.028;2023-04-03T06:39:43;56.55;44.03;69.41;;
77133;Laerm;26708;50.304;19.028;2023-04-03T06:41:48;59.05;43.80;70.09;;
77133;Laerm;26708;50.304;19.028;2023-04-03T06:43:54;59.03;43.18;69.80;;
77133;Laerm;26708;50.304;19.028;2023-04-03T06:46:00;58.39;41.09;69.87;;
77133;Laerm;26708;50.304;19.028;2023-04-03T06:48:05;56.42;42.88;71.65;;
77133;Laerm;26708;50.304;19.028;2023-04-03T06:50:11;58.69;42.60;72.26;;
77133;Laerm;26708;50.304;19.028;2023-04-03T06:52:20;55.02;43.10;70.52;;
77133;Laerm;26708;50.304;19.028;2023-04-03T06:54:24;57.65;43.08;68.99;;
77133;Laerm;26708;50.304;19.028;2023-04-03T06:56:29;55.18;42.86;70.34;;
77133;Laerm;26708;50.304;19.028;2023-04-03T06:58:34;59.51;44.83;72.40;;
77133;Laerm;26708;50.304;19.028;2023-04-03T07:00:39;54.19;42.97;70.40;;
77133;Laerm;26708;50.304;19.028;2023-04-03T07:02:43;57.76;43.89;71.21;;
77133;Laerm;26708;50.304;19.028;2023-04-03T07:04:49;60.14;44.29;71.41;;
77133;Laerm;26708;50.304;19.028;2023-04-03T07:06:53;57.95;43.99;72.91;;
77133;Laerm;26708;50.304;19.028;2023-04-03T07:09:01;58.48;42.81;68.76;;
77133;Laerm;26708;50.304;19.028;2023-04-03T07:11:08;56.87;43.34;68.55;;
77133;Laerm;26708;50.304;19.028;2023-04-03T07:13:12;55.63;43.48;69.02;;
77133;Laerm;26708;50.304;19.028;2023-04-03T07:15:17;56.62;41.98;70.41;;
77133;Laerm;26708;50.304;19.028;2023-04-03T07:17:23;58.10;44.89;68.91;;
77133;Laerm;26708;50.304;19.028;2023-04-03T07:19:28;56.35;42.07;70.83;;
77133;Laerm;26708;50.304;19.028;2023-04-03T07:21:33;56.42;42.66;70.61;;
77133;Laerm;26708;50.304;19.028;2023-04-03T07:23:39;57.21;42.73;69.99;;
77133;Laerm;26708;50.304;19.028;2023-04-03T07:25:49;56.68;43.38;69.69;;
77133;Laerm;26708;50.304;19.028;2023-04-03T07:27:54;57.78;44.26;69.58;;
77133;Laerm;26708;50.304;19.028;2023-04-03T07:29:59;54.00;42.63;68.73;;
77133;Laerm;26708;50.304;19.028;2023-04-03T07:32:05;55.90;43.07;67.86;;
77133;Laerm;26708;50.304;19.028;2023-04-03T07:34:10;59.84;43.26;74.25;;
77133;Laerm;26708;50.304;19.028;2023-04-03T07:36:19;53.83;41.35;67.77;;
77133;Laerm;26708;50.304;19.028;2023-04-03T07:38:24;58.69;42.71;71.22;;
77133;Laerm;26708;50.304;19.028;2023-04-03T07:40:29;58.57;43.96;69.77;;
77133;Laerm;26708;50.304;19.028;2023-04-03T07:42:36;57.36;43.16;68.58;;
77133;Laerm;26708;50.304;19.028;2023-04-03T07:44:41;55.21;42.19;67.02;;
77133;Laerm;26708;50.304;19.028;2023-04-03T07:46:46;59.64;43.58;73.47;;
77133;Laerm;26708;50.304;19.028;2023-04-03T07:48:52;57.83;42.95;69.97;;
77133;Laerm;26708;50.304;19.028;2023-04-03T07:50:59;56.28;43.72;67.64;;
77133;Laerm;26708;50.304;19.028;2023-04-03T07:53:05;58.57;43.27;71.51;;
77133;Laerm;26708;50.304;19.028;2023-04-03T07:55:10;54.55;42.61;66.92;;
77133;Laerm;26708;50.304;19.028;2023-04-03T07:57:15;56.36;42.95;67.72;;
77133;Laerm;26708;50.304;19.028;2023-04-03T07:59:22;55.66;42.54;67.15;;
77133;Laerm;26708;50.304;19.028;2023-04-03T08:01:27;59.28;43.73;71.47;;
77133;Laerm;26708;50.304;19.028;2023-04-03T08:03:34;57.70;43.85;70.33;;
77133;Laerm;26708;50.304;19.028;2023-04-03T08:05:41;58.49;42.53;73.36;;
77133;Laerm;26708;50.304;19.028;2023-04-03T08:07:47;59.01;43.50;73.34;;
77133;Laerm;26708;50.304;19.028;2023-04-03T08:09:52;58.90;45.13;71.12;;
77133;Laerm;26708;50.304;19.028;2023-04-03T08:11:57;58.21;42.65;71.95;;
77133;Laerm;26708;50.304;19.028;2023-04-03T08:14:03;58.36;42.33;71.57;;
77133;Laerm;26708;50.304;19.028;2023-04-03T08:16:16;55.49;42.63;67.67;;
77133;Laerm;26708;50.304;19.028;2023-04-03T08:18:21;57.97;43.47;69.31;;
77133;Laerm;26708;50.304;19.028;2023-04-03T08:20:28;56.75;44.22;68.51;;
77133;Laerm;26708;50.304;19.028;2023-04-03T08:22:33;56.73;42.23;68.14;;
77133;Laerm;26708;50.304;19.028;2023-04-03T08:24:38;57.36;42.32;68.64;;
77133;Laerm;26708;50.304;19.028;2023-04-03T08:26:43;59.38;43.55;71.97;;
77133;Laerm;26708;50.304;19.028;2023-04-03T08:28:49;57.29;43.65;69.42;;
77133;Laerm;26708;50.304;19.028;2023-04-03T08:30:53;60.32;45.12;70.34;;
77133;Laerm;26708;50.304;19.028;2023-04-03T08:33:03;56.76;42.47;72.96;;
77133;Laerm;26708;50.304;19.028;2023-04-03T08:35:09;56.87;42.84;68.95;;
77133;Laerm;26708;50.304;19.028;2023-04-03T08:37:14;54.78;43.87;66.61;;
77133;Laerm;26708;50.304;19.028;2023-04-03T08:39:21;57.82;43.64;70.54;;
77133;Laerm;26708;50.304;19.028;2023-04-03T08:41:32;56.81;45.20;67.86;;
77133;Laerm;26708;50.304;19.028;2023-04-03T08:43:56;54.93;42.71;68.72;;
77133;Laerm;26708;50.304;19.028;2023-04-03T08:46:09;57.40;43.39;67.94;;
77133;Laerm;26708;50.304;19.028;2023-04-03T08:48:24;56.44;43.93;76.56;;
77133;Laerm;26708;50.304;19.028;2023-04-03T08:50:38;59.53;44.51;71.08;;
77133;Laerm;26708;50.304;19.028;2023-04-03T08:52:51;57.44;42.91;70.20;;
77133;Laerm;26708;50.304;19.028;2023-04-03T08:55:00;55.81;42.74;67.53;;
77133;Laerm;26708;50.304;19.028;2023-04-03T08:57:05;58.47;43.49;69.81;;
77133;Laerm;26708;50.304;19.028;2023-04-03T08:59:23;58.84;43.03;70.28;;
77133;Laerm;26708;50.304;19.028;2023-04-03T09:01:36;59.53;44.50;70.41;;
77133;Laerm;26708;50.304;19.028;2023-04-03T09:03:44;58.52;44.37;72.57;;
77133;Laerm;26708;50.304;19.028;2023-04-03T09:05:57;59.85;42.99;76.38;;
77133;Laerm;26708;50.304;19.028;2023-04-03T09:08:14;58.14;45.15;71.97;;
77133;Laerm;26708;50.304;19.028;2023-04-03T09:10:29;62.15;44.29;78.52;;
77133;Laerm;26708;50.304;19.028;2023-04-03T09:12:42;56.32;44.07;66.51;;
77133;Laerm;26708;50.304;19.028;2023-04-03T09:15:02;57.98;44.16;69.95;;
77133;Laerm;26708;50.304;19.028;2023-04-03T09:17:22;57.95;45.06;74.51;;
77133;Laerm;26708;50.304;19.028;2023-04-03T09:19:47;59.57;45.26;67.80;;
77133;Laerm;26708;50.304;19.028;2023-04-03T09:21:57;60.18;45.02;70.93;;
77133;Laerm;26708;50.304;19.028;2023-04-03T09:24:07;58.49;44.55;70.22;;
77133;Laerm;26708;50.304;19.028;2023-04-03T09:26:18;52.52;41.92;65.94;;
77133;Laerm;26708;50.304;19.028;2023-04-03T09:28:27;56.53;42.01;70.29;;
77133;Laerm;26708;50.304;19.028;2023-04-03T09:30:34;59.04;44.22;71.04;;
77133;Laerm;26708;50.304;19.028;2023-04-03T09:32:40;55.41;43.19;68.93;;
77133;Laerm;26708;50.304;19.028;2023-04-03T09:34:50;56.99;43.38;69.18;;
77133;Laerm;26708;50.304;19.028;2023-04-03T09:36:58;57.74;41.99;68.45;;
77133;Laerm;26708;50.304;19.028;2023-04-03T09:39:13;57.96;42.92;69.09;;
77133;Laerm;26708;50.304;19.028;2023-04-03T09:41:19;59.04;43.91;70.00;;
77133;Laerm;26708;50.304;19.028;2023-04-03T09:43:29;56.81;42.67;68.16;;
77133;Laerm;26708;50.304;19.028;2023-04-03T09:45:35;59.34;41.85;72.04;;
77133;Laerm;26708;50.304;19.028;2023-04-03T09:47:40;58.29;41.79;69.94;;
77133;Laerm;26708;50.304;19.028;2023-04-03T09:49:48;58.93;44.36;70.85;;
77133;Laerm;26708;50.304;19.028;2023-04-03T09:51:53;56.72;43.41;66.76;;
77133;Laerm;26708;50.304;19.028;2023-04-03T09:53:58;54.42;42.50;66.55;;
77133;Laerm;26708;50.304;19.028;2023-04-03T09:56:19;57.40;43.50;70.13;;
77133;Laerm;26708;50.304;19.028;2023-04-03T09:58:30;59.35;42.09;74.22;;
77133;Laerm;26708;50.304;19.028;2023-04-03T10:00:38;60.20;44.17;71.29;;
77133;Laerm;26708;50.304;19.028;2023-04-03T10:02:44;57.21;45.20;70.35;;
77133;Laerm;26708;50.304;19.028;2023-04-03T10:04:52;58.55;44.42;71.73;;
77133;Laerm;26708;50.304;19.028;2023-04-03T10:06:57;54.32;44.18;67.71;;
77133;Laerm;26708;50.304;19.028;2023-04-03T10:09:10;52.41;42.49;68.34;;
77133;Laerm;26708;50.304;19.028;2023-04-03T10:11:20;59.11;43.20;76.15;;
77133;Laerm;26708;50.304;19.028;2023-04-03T10:13:24;58.54;44.62;73.06;;
77133;Laerm;26708;50.304;19.028;2023-04-03T10:15:39;58.38;43.03;68.77;;
77133;Laerm;26708;50.304;19.028;2023-04-03T10:18:03;53.78;41.76;69.79;;
77133;Laerm;26708;50.304;19.028;2023-04-03T10:20:29;56.37;42.74;68.14;;
77133;Laerm;26708;50.304;19.028;2023-04-03T10:22:55;60.12;43.47;73.31;;
77133;Laerm;26708;50.304;19.028;2023-04-03T10:25:17;55.84;42.92;70.28;;
77133;Laerm;26708;50.304;19.028;2023-04-03T10:27:42;60.11;45.96;74.74;;
77133;Laerm;26708;50.304;19.028;2023-04-03T10:30:03;61.03;44.17;78.82;;
77133;Laerm;26708;50.304;19.028;2023-04-03T10:32:41;58.39;44.34;70.66;;
77133;Laerm;26708;50.304;19.028;2023-04-03T10:35:01;55.11;42.46;68.53;;
77133;Laerm;26708;50.304;19.028;2023-04-03T10:37:23;54.74;42.36;79.88;;
77133;Laerm;26708;50.304;19.028;2023-04-03T10:39:41;56.29;43.09;67.98;;
77133;Laerm;26708;50.304;19.028;2023-04-03T10:42:03;58.24;42.94;69.26;;
77133;Laerm;26708;50.304;19.028;2023-04-03T10:44:23;58.35;44.08;67.99;;
77133;Laerm;26708;50.304;19.028;2023-04-03T10:46:39;58.86;43.10;69.01;;
77133;Laerm;26708;50.304;19.028;2023-04-03T10:49:16;50.86;41.85;64.37;;
77133;Laerm;26708;50.304;19.028;2023-04-03T10:51:31;57.47;43.65;69.34;;
77133;Laerm;26708;50.304;19.028;2023-04-03T10:53:56;58.17;42.49;70.27;;
77133;Laerm;26708;50.304;19.028;2023-04-03T10:56:17;57.60;43.15;68.64;;
77133;Laerm;26708;50.304;19.028;2023-04-03T10:58:33;57.33;43.75;69.56;;
77133;Laerm;26708;50.304;19.028;2023-04-03T11:00:46;58.55;42.39;71.45;;
77133;Laerm;26708;50.304;19.028;2023-04-03T11:02:58;59.35;42.78;69.94;;
77133;Laerm;26708;50.304;19.028;2023-04-03T11:05:15;56.72;41.60;66.81;;
77133;Laerm;26708;50.304;19.028;2023-04-03T11:07:29;60.53;55.34;71.89;;
77133;Laerm;26708;50.304;19.028;2023-04-03T11:09:44;58.83;43.62;69.17;;
77133;Laerm;26708;50.304;19.028;2023-04-03T11:11:57;56.10;41.90;67.83;;
77133;Laerm;26708;50.304;19.028;2023-04-03T11:14:14;54.77;43.01;67.41;;
77133;Laerm;26708;50.304;19.028;2023-04-03T11:16:26;55.96;42.64;69.51;;
77133;Laerm;26708;50.304;19.028;2023-04-03T11:18:41;56.06;42.70;68.96;;
77133;Laerm;26708;50.304;19.028;2023-04-03T11:21:00;56.07;42.10;68.82;;
77133;Laerm;26708;50.304;19.028;2023-04-03T11:23:21;57.70;43.62;68.98;;
77133;Laerm;26708;50.304;19.028;2023-04-03T11:25:36;59.18;42.68;70.69;;
77133;Laerm;26708;50.304;19.028;2023-04-03T11:27:48;58.08;41.89;73.20;;
77133;Laerm;26708;50.304;19.028;2023-04-03T11:29:59;57.27;44.03;68.95;;
77133;Laerm;26708;50.304;19.028;2023-04-03T11:32:27;58.46;42.38;71.34;;
77133;Laerm;26708;50.304;19.028;2023-04-03T11:34:40;59.49;44.30;69.85;;
77133;Laerm;26708;50.304;19.028;2023-04-03T11:36:50;57.96;43.14;70.45;;
77133;Laerm;26708;50.304;19.028;2023-04-03T11:39:02;56.61;42.30;68.79;;
77133;Laerm;26708;50.304;19.028;2023-04-03T11:41:15;54.61;44.02;67.31;;
77133;Laerm;26708;50.304;19.028;2023-04-03T11:43:26;53.99;42.45;66.12;;
77133;Laerm;26708;50.304;19.028;2023-04-03T11:45:54;58.12;43.16;68.72;;
77133;Laerm;26708;50.304;19.028;2023-04-03T11:48:04;55.25;42.58;68.29;;
77133;Laerm;26708;50.304;19.028;2023-04-03T11:50:40;59.42;43.90;70.27;;
77133;Laerm;26708;50.304;19.028;2023-04-03T11:53:02;58.44;42.55;72.06;;